createdAt,value
2022-10-17T00:00:45.450Z,13.50
2022-10-17T00:03:17.288Z,13.49
2022-10-17T00:05:50.836Z,13.49
2022-10-17T00:08:21.660Z,13.50
2022-10-17T00:11:00.173Z,13.50
2022-10-17T00:13:30.999Z,13.51
2022-10-17T00:16:01.559Z,13.53
2022-10-17T00:18:32.116Z,13.55
2022-10-17T00:21:02.915Z,13.60
2022-10-17T00:23:34.022Z,13.63
2022-10-17T00:26:05.857Z,13.67
2022-10-17T00:28:36.525Z,13.70
2022-10-17T00:31:10.403Z,13.71
2022-10-17T00:33:43.173Z,13.75
2022-10-17T00:36:15.829Z,13.80
2022-10-17T00:38:48.204Z,13.86
2022-10-17T00:41:20.567Z,13.94
2022-10-17T00:43:57.317Z,13.97
2022-10-17T00:46:30.809Z,13.97
2022-10-17T00:49:04.628Z,13.95
2022-10-17T00:51:38.202Z,13.96
2022-10-17T00:54:09.104Z,13.95
2022-10-17T00:56:40.419Z,13.93
2022-10-17T00:59:12.208Z,13.91
2022-10-17T01:01:45.216Z,13.86
2022-10-17T01:04:17.284Z,13.79
2022-10-17T01:06:48.640Z,13.71
2022-10-17T01:09:19.616Z,13.64
2022-10-17T01:11:54.075Z,13.62
2022-10-17T01:14:31.673Z,13.62
2022-10-17T01:17:08.150Z,13.61
2022-10-17T01:19:50.649Z,13.59
2022-10-17T01:22:29.147Z,13.54
2022-10-17T01:25:16.718Z,13.52
2022-10-17T01:28:15.203Z,13.52
2022-10-17T01:31:05.612Z,13.51
2022-10-17T01:33:49.809Z,13.49
2022-10-17T01:36:36.467Z,13.50
2022-10-17T01:39:20.913Z,13.51
2022-10-17T01:41:57.617Z,13.54
2022-10-17T01:44:35.634Z,13.58
2022-10-17T01:47:09.696Z,13.58
2022-10-17T01:49:44.126Z,13.55
2022-10-17T01:52:19.984Z,13.50
2022-10-17T01:54:55.676Z,13.44
2022-10-17T01:57:31.431Z,13.41
2022-10-17T02:00:06.672Z,13.41
2022-10-17T02:02:46.373Z,13.41
2022-10-17T02:05:18.842Z,13.41
2022-10-17T02:10:41.094Z,13.37
2022-10-17T02:13:19.999Z,13.32
2022-10-17T02:16:01.729Z,13.32
2022-10-17T02:18:48.203Z,13.32
2022-10-17T02:21:31.042Z,13.31
2022-10-17T02:24:08.689Z,13.32
2022-10-17T02:26:47.659Z,13.34
2022-10-17T02:29:24.741Z,13.35
2022-10-17T02:32:01.935Z,13.37
2022-10-17T02:34:37.991Z,13.40
2022-10-17T02:37:15.997Z,13.41
2022-10-17T02:39:48.674Z,13.40
2022-10-17T02:42:21.255Z,13.38
2022-10-17T02:44:54.671Z,13.37
2022-10-17T02:47:37.001Z,13.37
2022-10-17T02:50:11.106Z,13.37
2022-10-17T02:52:55.220Z,13.36
2022-10-17T02:55:33.816Z,13.35
2022-10-17T02:58:13.069Z,13.32
2022-10-17T03:00:48.514Z,13.29
2022-10-17T03:03:27.004Z,13.27
2022-10-17T03:06:01.589Z,13.27
2022-10-17T03:11:17.652Z,13.25
2022-10-17T03:13:51.835Z,13.24
2022-10-17T03:21:03.244Z,13.31
2022-10-17T03:23:38.214Z,13.30
2022-10-17T03:32:43.993Z,13.19
2022-10-17T03:35:15.227Z,13.13
2022-10-17T03:37:47.684Z,13.14
2022-10-17T03:40:18.572Z,13.13
2022-10-17T03:42:49.138Z,13.12
2022-10-17T03:45:20.128Z,13.11
2022-10-17T03:47:50.879Z,13.10
2022-10-17T03:50:21.387Z,13.08
2022-10-17T03:52:51.845Z,13.09
2022-10-17T03:55:22.695Z,13.09
2022-10-17T03:57:53.632Z,13.08
2022-10-17T04:00:24.457Z,13.07
2022-10-17T04:02:57.983Z,13.03
2022-10-17T04:05:28.545Z,13.01
2022-10-17T04:08:03.856Z,13.01
2022-10-17T04:10:58.641Z,12.99
2022-10-17T04:13:29.953Z,12.98
2022-10-17T04:16:05.059Z,12.96
2022-10-17T04:18:36.188Z,12.94
2022-10-17T04:21:07.652Z,12.95
2022-10-17T04:23:38.284Z,12.99
2022-10-17T04:26:15.403Z,13.03
2022-10-17T04:28:45.909Z,13.07
2022-10-17T04:31:17.322Z,13.10
2022-10-17T04:34:11.071Z,13.13
2022-10-17T04:36:42.139Z,13.14
2022-10-17T04:41:44.939Z,13.20
2022-10-17T04:44:19.130Z,13.23
2022-10-17T04:46:53.478Z,13.23
2022-10-17T04:49:24.490Z,13.21
2022-10-17T04:51:55.668Z,13.20
2022-10-17T04:54:44.792Z,13.17
2022-10-17T04:57:17.369Z,13.14
2022-10-17T04:59:55.043Z,13.12
2022-10-17T05:02:31.302Z,13.11
2022-10-17T05:05:05.202Z,13.08
2022-10-17T05:07:39.214Z,13.08
2022-10-17T05:10:16.051Z,13.07
2022-10-17T05:12:49.571Z,13.06
2022-10-17T05:15:21.857Z,13.02
2022-10-17T05:17:57.589Z,13.00
2022-10-17T05:20:32.665Z,12.99
2022-10-17T05:23:04.244Z,12.97
2022-10-17T05:25:39.304Z,12.95
2022-10-17T05:28:10.711Z,12.92
2022-10-17T05:30:41.220Z,12.89
2022-10-17T05:33:13.499Z,12.84
2022-10-17T05:35:44.373Z,12.81
2022-10-17T05:38:14.900Z,12.78
2022-10-17T05:40:45.476Z,12.75
2022-10-17T05:43:15.939Z,12.73
2022-10-17T05:45:46.900Z,12.72
2022-10-17T05:48:21.162Z,12.68
2022-10-17T05:50:51.666Z,12.66
2022-10-17T05:53:23.601Z,12.64
2022-10-17T05:55:59.718Z,12.65
2022-10-17T05:58:49.851Z,12.69
2022-10-17T06:01:50.414Z,12.77
2022-10-17T06:04:20.960Z,12.83
2022-10-17T06:06:51.309Z,12.87
2022-10-17T06:09:22.662Z,12.88
2022-10-17T06:11:55.510Z,12.90
2022-10-17T06:14:26.409Z,12.91
2022-10-17T06:17:01.089Z,12.93
2022-10-17T06:19:31.812Z,12.98
2022-10-17T06:22:02.281Z,13.07
2022-10-17T06:24:32.873Z,13.15
2022-10-17T06:27:10.942Z,13.23
2022-10-17T06:29:43.508Z,13.31
2022-10-17T06:32:17.763Z,13.43
2022-10-17T06:34:51.236Z,13.57
2022-10-17T06:37:22.985Z,13.74
2022-10-17T06:39:54.099Z,13.91
2022-10-17T06:42:25.261Z,14.34
2022-10-17T06:45:22.181Z,14.97
2022-10-17T06:48:11.593Z,15.66
2022-10-17T06:50:47.670Z,16.14
2022-10-17T06:53:28.553Z,16.65
2022-10-17T06:56:25.462Z,17.15
2022-10-17T06:59:13.544Z,17.62
2022-10-17T07:01:52.047Z,18.09
2022-10-17T07:04:23.444Z,18.53
2022-10-17T07:06:54.645Z,18.97
2022-10-17T07:09:27.930Z,19.35
2022-10-17T07:12:01.774Z,19.60
2022-10-17T07:14:32.989Z,19.77
2022-10-17T07:17:04.277Z,19.92
2022-10-17T07:19:34.921Z,20.16
2022-10-17T07:22:06.530Z,20.32
2022-10-17T07:24:38.739Z,20.48
2022-10-17T07:27:18.285Z,20.59
2022-10-17T07:29:48.943Z,20.65
2022-10-17T07:32:24.820Z,20.75
2022-10-17T07:34:55.546Z,20.79
2022-10-17T07:37:26.047Z,20.85
2022-10-17T07:39:59.356Z,21.01
2022-10-17T07:42:29.918Z,21.13
2022-10-17T07:45:01.442Z,21.15
2022-10-17T07:47:35.704Z,21.23
2022-10-17T07:50:07.590Z,21.33
2022-10-17T07:52:38.036Z,21.43
2022-10-17T07:55:10.368Z,21.66
2022-10-17T07:57:40.203Z,21.87
2022-10-17T08:00:12.268Z,22.09
2022-10-17T08:02:45.382Z,22.24
2022-10-17T08:05:15.951Z,22.35
2022-10-17T08:07:46.357Z,22.39
2022-10-17T08:10:17.596Z,22.42
2022-10-17T08:12:48.034Z,22.33
2022-10-17T08:15:18.695Z,22.24
2022-10-17T08:17:49.030Z,22.08
2022-10-17T08:20:19.592Z,21.84
2022-10-17T08:27:25.520Z,21.51
2022-10-17T08:29:56.004Z,21.43
2022-10-17T08:32:29.750Z,21.47
2022-10-17T08:35:01.129Z,21.59
2022-10-17T08:37:33.386Z,21.72
2022-10-17T08:40:04.700Z,21.86
2022-10-17T08:42:57.818Z,21.99
2022-10-17T08:45:33.065Z,22.18
2022-10-17T08:48:05.926Z,22.38
2022-10-17T08:50:40.090Z,22.58
2022-10-17T08:53:14.889Z,22.78
2022-10-17T08:55:48.552Z,22.91
2022-10-17T08:58:22.096Z,22.88
2022-10-17T09:01:05.356Z,22.82
2022-10-17T09:03:48.198Z,22.71
2022-10-17T09:06:25.176Z,22.49
2022-10-17T09:09:05.293Z,22.35
2022-10-17T09:11:52.305Z,22.32
2022-10-17T09:14:36.054Z,22.35
2022-10-17T09:17:18.044Z,22.48
2022-10-17T09:20:01.113Z,22.75
2022-10-17T09:22:39.061Z,23.00
2022-10-17T09:25:16.567Z,23.23
2022-10-17T09:27:52.253Z,23.43
2022-10-17T09:30:50.267Z,23.64
2022-10-17T09:33:34.611Z,23.95
2022-10-17T09:36:17.398Z,24.29
2022-10-17T09:38:51.756Z,24.50
2022-10-17T09:41:45.449Z,24.49
2022-10-17T09:44:19.369Z,24.46
2022-10-17T09:47:01.431Z,24.59
2022-10-17T09:49:33.049Z,24.69
2022-10-17T09:52:08.048Z,24.45
2022-10-17T09:54:48.829Z,24.39
2022-10-17T09:57:21.046Z,24.72
2022-10-17T10:00:00.227Z,25.00
2022-10-17T10:02:33.531Z,25.17
2022-10-17T10:05:06.892Z,25.36
2022-10-17T10:07:40.110Z,25.62
2022-10-17T10:10:28.121Z,25.75
2022-10-17T10:13:16.993Z,25.92
2022-10-17T10:15:48.432Z,26.25
2022-10-17T10:18:38.445Z,26.64
2022-10-17T10:21:12.204Z,27.00
2022-10-17T10:23:44.042Z,27.12
2022-10-17T10:26:35.407Z,27.21
2022-10-17T10:29:07.540Z,27.31
2022-10-17T10:31:45.597Z,27.49
2022-10-17T10:34:25.217Z,27.53
2022-10-17T10:37:05.708Z,27.40
2022-10-17T10:39:44.304Z,27.13
2022-10-17T10:42:27.944Z,26.82
2022-10-17T10:45:04.741Z,26.54
2022-10-17T10:47:39.874Z,26.23
2022-10-17T10:50:29.858Z,25.92
2022-10-17T10:53:22.303Z,25.90
2022-10-17T10:55:59.488Z,25.97
2022-10-17T10:58:42.112Z,25.84
2022-10-17T11:01:25.127Z,25.61
2022-10-17T11:04:08.358Z,25.52
2022-10-17T11:06:46.288Z,25.71
2022-10-17T11:09:35.703Z,26.23
2022-10-17T11:12:14.578Z,26.64
2022-10-17T11:14:54.899Z,26.51
2022-10-17T11:17:38.351Z,26.14
2022-10-17T11:20:26.824Z,25.80
2022-10-17T11:23:08.691Z,25.46
2022-10-17T11:32:31.655Z,24.36
2022-10-17T11:35:09.349Z,25.03
2022-10-17T11:37:45.036Z,25.98
2022-10-17T11:40:23.633Z,27.02
2022-10-17T11:43:00.758Z,27.86
2022-10-17T11:56:38.007Z,30.46
2022-10-17T11:59:25.440Z,30.78
2022-10-17T12:01:59.779Z,30.75
2022-10-17T12:04:49.424Z,30.64
2022-10-17T12:07:26.623Z,30.52
2022-10-17T12:10:00.394Z,30.43
2022-10-17T12:12:33.139Z,30.51
2022-10-17T12:15:30.468Z,30.24
2022-10-17T12:18:02.990Z,29.54
2022-10-17T12:20:36.267Z,29.29
2022-10-17T12:23:23.987Z,29.70
2022-10-17T12:26:01.082Z,30.30
2022-10-17T12:28:35.478Z,30.79
2022-10-17T12:31:10.175Z,30.83
2022-10-17T12:33:50.925Z,30.89
2022-10-17T12:36:48.534Z,30.34
2022-10-17T12:39:54.022Z,29.88
2022-10-17T12:42:49.323Z,29.91
2022-10-17T12:45:48.036Z,29.69
2022-10-17T12:48:45.837Z,29.75
2022-10-17T12:54:14.950Z,29.72
2022-10-17T12:56:48.654Z,30.11
2022-10-17T12:59:22.787Z,30.45
2022-10-17T13:01:56.072Z,30.75
2022-10-17T13:04:27.618Z,30.48
2022-10-17T13:07:01.294Z,29.58
2022-10-17T13:09:34.858Z,28.29
2022-10-17T13:12:07.844Z,27.07
2022-10-17T13:14:40.951Z,26.07
2022-10-17T13:17:24.604Z,25.34
2022-10-17T13:19:55.745Z,24.86
2022-10-17T13:22:28.596Z,24.45
2022-10-17T13:25:13.521Z,24.07
2022-10-17T13:27:44.868Z,23.78
2022-10-17T13:30:30.902Z,23.62
2022-10-17T13:33:03.397Z,23.43
2022-10-17T13:35:58.898Z,23.27
2022-10-17T13:38:29.183Z,23.03
2022-10-17T13:41:10.767Z,22.81
2022-10-17T13:43:50.241Z,22.64
2022-10-17T13:46:37.304Z,22.48
2022-10-17T13:49:16.596Z,22.32
2022-10-17T13:51:48.528Z,22.17
2022-10-17T13:54:36.551Z,22.04
2022-10-17T13:57:20.344Z,21.88
2022-10-17T13:59:52.736Z,21.76
2022-10-17T14:02:24.858Z,21.63
2022-10-17T14:05:17.240Z,21.52
2022-10-17T14:10:45.369Z,21.25
2022-10-17T14:13:23.918Z,21.17
2022-10-17T14:15:55.361Z,21.09
2022-10-17T14:18:33.273Z,21.02
2022-10-17T14:21:34.337Z,20.91
2022-10-17T14:24:14.749Z,20.81
2022-10-17T14:26:54.437Z,20.73
2022-10-17T14:29:27.715Z,20.63
2022-10-17T14:32:04.947Z,20.54
2022-10-17T14:34:38.035Z,20.44
2022-10-17T14:37:25.666Z,20.36
2022-10-17T14:39:58.852Z,20.30
2022-10-17T14:42:29.597Z,20.27
2022-10-17T14:45:10.973Z,20.28
2022-10-17T14:47:43.903Z,20.30
2022-10-17T14:50:26.624Z,20.34
2022-10-17T14:53:09.167Z,20.35
2022-10-17T14:55:41.567Z,20.36
2022-10-17T14:58:25.851Z,20.37
2022-10-17T15:00:56.783Z,20.37
2022-10-17T15:03:28.003Z,20.37
2022-10-17T15:05:59.359Z,20.33
2022-10-17T15:08:29.771Z,20.29
2022-10-17T15:11:00.580Z,20.29
2022-10-17T15:13:34.997Z,20.30
2022-10-17T15:16:16.551Z,20.31
2022-10-17T15:18:47.029Z,20.30
2022-10-17T15:21:33.339Z,20.25
2022-10-17T15:24:16.428Z,20.20
2022-10-17T15:26:49.449Z,20.17
2022-10-17T15:29:19.804Z,20.14
2022-10-17T15:31:50.294Z,20.11
2022-10-17T15:34:20.751Z,20.07
2022-10-17T15:36:53.866Z,20.00
2022-10-17T15:39:24.313Z,19.90
2022-10-17T15:41:54.768Z,19.77
2022-10-17T15:44:25.146Z,19.63
2022-10-17T15:46:56.309Z,19.47
2022-10-17T15:49:26.768Z,19.32
2022-10-17T15:51:57.147Z,19.16
2022-10-17T15:54:27.621Z,19.02
2022-10-17T15:56:58.161Z,18.86
2022-10-17T15:59:33.171Z,18.70
2022-10-17T16:02:03.596Z,18.51
2022-10-17T16:04:33.985Z,18.36
2022-10-17T16:07:04.364Z,18.21
2022-10-17T16:09:34.828Z,18.08
2022-10-17T16:12:06.343Z,17.95
2022-10-17T16:14:38.247Z,17.82
2022-10-17T16:17:11.845Z,17.68
2022-10-17T16:19:43.259Z,17.56
2022-10-17T16:22:21.965Z,17.45
2022-10-17T16:24:58.569Z,17.35
2022-10-17T16:27:29.954Z,17.26
2022-10-17T16:30:04.355Z,17.19
2022-10-17T16:32:35.804Z,17.13
2022-10-17T16:35:08.390Z,17.07
2022-10-17T16:37:39.628Z,17.02
2022-10-17T16:40:12.679Z,16.97
2022-10-17T16:42:44.157Z,16.93
2022-10-17T16:45:19.616Z,16.88
2022-10-17T16:47:51.486Z,16.82
2022-10-17T16:50:22.321Z,16.75
2022-10-17T16:52:57.023Z,16.67
2022-10-17T16:55:28.263Z,16.59
2022-10-17T16:58:00.006Z,16.53
2022-10-17T17:00:34.369Z,16.47
2022-10-17T17:03:05.535Z,16.43
2022-10-17T17:05:37.022Z,16.42
2022-10-17T17:08:11.804Z,16.40
2022-10-17T17:10:49.584Z,16.39
2022-10-17T17:13:20.285Z,16.39
2022-10-17T17:15:53.634Z,16.41
2022-10-17T17:18:24.079Z,16.47
2022-10-17T17:20:54.563Z,16.53
2022-10-17T17:23:25.101Z,16.59
2022-10-17T17:26:01.065Z,16.64
2022-10-17T17:28:32.096Z,16.67
2022-10-17T17:31:02.861Z,16.70
2022-10-17T17:33:33.733Z,16.72
2022-10-17T17:36:04.606Z,16.74
2022-10-17T17:38:36.608Z,16.75
2022-10-17T17:41:07.234Z,16.76
2022-10-17T17:43:38.057Z,16.76
2022-10-17T17:46:09.068Z,16.74
2022-10-17T17:48:40.956Z,16.72
2022-10-17T17:51:12.499Z,16.72
2022-10-17T17:53:46.052Z,16.70
2022-10-17T17:56:17.879Z,16.70
2022-10-17T17:58:49.528Z,16.66
2022-10-17T18:01:22.371Z,16.61
2022-10-17T18:03:54.601Z,16.56
2022-10-17T18:06:25.777Z,16.53
2022-10-17T18:08:57.707Z,16.50
2022-10-17T18:11:29.076Z,16.49
2022-10-17T18:14:01.841Z,16.49
2022-10-17T18:16:34.468Z,16.47
2022-10-17T18:19:11.169Z,16.46
2022-10-17T18:21:42.981Z,16.47
2022-10-17T18:24:13.774Z,16.50
2022-10-17T18:26:45.871Z,16.54
2022-10-17T18:29:20.262Z,16.58
2022-10-17T18:31:52.771Z,16.62
2022-10-17T18:34:25.004Z,16.66
2022-10-17T18:36:59.423Z,16.69
2022-10-17T18:39:32.586Z,16.70
2022-10-17T18:42:04.016Z,16.73
2022-10-17T18:44:36.441Z,16.76
2022-10-17T18:47:08.552Z,16.79
2022-10-17T18:49:39.511Z,16.81
2022-10-17T18:52:10.806Z,16.83
2022-10-17T18:54:42.127Z,16.84
2022-10-17T18:57:13.499Z,16.85
2022-10-17T18:59:44.877Z,16.87
2022-10-17T19:02:16.597Z,16.91
2022-10-17T19:07:24.775Z,16.95
2022-10-17T19:09:58.875Z,16.98
2022-10-17T19:12:30.533Z,16.99
2022-10-17T19:15:01.809Z,17.00
2022-10-17T19:17:32.781Z,17.01
2022-10-17T19:20:04.789Z,16.99
2022-10-17T19:22:36.186Z,16.96
2022-10-17T19:25:08.736Z,16.91
2022-10-17T19:27:39.682Z,16.84
2022-10-17T19:30:12.750Z,16.78
2022-10-17T19:32:43.486Z,16.74
2022-10-17T19:35:14.348Z,16.68
2022-10-17T19:37:45.918Z,16.63
2022-10-17T19:40:17.721Z,16.59
2022-10-17T19:42:50.612Z,16.55
2022-10-17T19:45:21.462Z,16.53
2022-10-17T19:47:52.585Z,16.51
2022-10-17T19:50:24.956Z,16.51
2022-10-17T19:52:54.841Z,16.53
2022-10-17T19:55:27.311Z,16.53
2022-10-17T19:58:00.813Z,16.53
2022-10-17T20:00:33.177Z,16.54
2022-10-17T20:03:05.659Z,16.56
2022-10-17T20:05:42.505Z,16.59
2022-10-17T20:08:15.481Z,16.62
2022-10-17T20:10:47.856Z,16.63
2022-10-17T20:13:23.801Z,16.64
2022-10-17T20:15:59.109Z,16.65
2022-10-17T20:18:31.596Z,16.66
2022-10-17T20:21:09.672Z,16.68
2022-10-17T20:23:43.535Z,16.71
2022-10-17T20:29:12.838Z,16.72
2022-10-17T20:31:47.303Z,16.72
2022-10-17T20:34:20.890Z,16.73
2022-10-17T20:36:53.923Z,16.74
2022-10-17T20:39:28.378Z,16.76
2022-10-17T20:42:04.449Z,16.77
2022-10-17T20:44:38.105Z,16.76
2022-10-17T20:47:26.471Z,16.75
2022-10-17T20:50:04.492Z,16.76
2022-10-17T20:52:36.973Z,16.77
2022-10-17T20:55:10.531Z,16.78
2022-10-17T20:57:43.876Z,16.79
2022-10-17T21:00:27.973Z,16.79
2022-10-17T21:03:00.891Z,16.78
2022-10-17T21:05:34.218Z,16.79
2022-10-17T21:08:06.887Z,16.79
2022-10-17T21:10:37.261Z,16.80
2022-10-17T21:13:11.538Z,16.80
2022-10-17T21:15:46.503Z,16.79
2022-10-17T21:18:21.031Z,16.77
2022-10-17T21:20:53.541Z,16.77
2022-10-17T21:28:00.460Z,16.78
2022-10-17T21:30:33.338Z,16.78
2022-10-17T21:33:05.758Z,16.76
2022-10-17T21:35:36.891Z,16.76
2022-10-17T21:38:08.793Z,16.76
2022-10-17T21:40:41.134Z,16.77
2022-10-17T21:43:13.807Z,16.78
2022-10-17T21:45:45.151Z,16.78
2022-10-17T21:48:17.805Z,16.76
2022-10-17T21:50:50.460Z,16.76
2022-10-17T21:53:22.194Z,16.77
2022-10-17T21:55:53.916Z,16.79
2022-10-17T21:58:26.845Z,16.78
2022-10-17T22:01:07.181Z,16.78
2022-10-17T22:03:44.102Z,16.77
2022-10-17T22:09:17.842Z,16.77
2022-10-17T22:11:51.298Z,16.77
2022-10-17T22:14:24.872Z,16.76
2022-10-17T22:16:57.048Z,16.73
2022-10-17T22:19:30.880Z,16.72
2022-10-17T22:22:01.992Z,16.71
2022-10-17T22:24:33.892Z,16.71
2022-10-17T22:32:59.308Z,16.72
2022-10-17T22:35:30.018Z,16.68
2022-10-17T22:38:00.448Z,16.66
2022-10-17T22:40:30.934Z,16.66
2022-10-17T22:43:01.529Z,16.66
2022-10-17T22:45:32.661Z,16.66
2022-10-17T22:48:03.248Z,16.69
2022-10-17T22:50:33.905Z,16.70
2022-10-17T22:53:04.396Z,16.71
2022-10-17T22:55:35.378Z,16.72
2022-10-17T22:58:05.940Z,16.73
2022-10-17T23:00:36.530Z,16.73
2022-10-17T23:03:07.017Z,16.73
2022-10-17T23:05:37.456Z,16.73
2022-10-17T23:08:07.986Z,16.72
2022-10-17T23:10:38.872Z,16.70
2022-10-17T23:13:09.507Z,16.69
2022-10-17T23:15:40.028Z,16.67
2022-10-17T23:18:10.721Z,16.65
2022-10-17T23:20:41.079Z,16.62
2022-10-17T23:23:11.543Z,16.60
2022-10-17T23:25:42.192Z,16.60
2022-10-17T23:28:12.956Z,16.61
2022-10-17T23:30:43.407Z,16.61
2022-10-17T23:33:14.742Z,16.61
2022-10-17T23:35:45.219Z,16.59
2022-10-17T23:38:15.718Z,16.58
2022-10-17T23:40:46.212Z,16.58
2022-10-17T23:43:16.637Z,16.58
2022-10-17T23:45:47.017Z,16.61
2022-10-17T23:48:17.382Z,16.62
2022-10-17T23:50:47.789Z,16.63
2022-10-17T23:53:18.213Z,16.62
2022-10-17T23:55:48.700Z,16.60
2022-10-17T23:58:19.191Z,16.60
